Frem Nordica — OVIL2 — position and weather

sailwx.info

Track history (hours):
 
Tides and Currents Weather Stations Pressure Air Temp Water Temp Dewpoint Dewpoint Depression Visibility Wind Speed Wind Dir Waves Ship Positions

Frem Nordica

Last reported at 2015-Apr-19 20:15 UTC. Time now 2015-Apr-21 09:46 UTC.
Position N 55°12' E 012°11'.

Length 79 m; draft 3.4 m.

MMSI: 220439000.

Date/timePositionNaut miles runAvg speedWind from/ knotsBaromVisibWave heightAir tempDewpointWater temp
2015-Apr-19 20:15N 55°12' E 012°11'5 7.3
2015-Apr-19 19:33N 55°12' E 012°19'8 8.3
2015-Apr-19 18:33N 55°13' E 012°34'8 8.3
2015-Apr-19 17:33N 55°13' E 012°48'8 8.3
2015-Apr-19 16:33N 55°13' E 013°03'189 6.9
2015-Apr-18 13:23N 57°11' E 017°28'  
2015-Apr-13 20:31N 55°14' E 014°27'7 7.6
2015-Apr-13 19:33N 55°09' E 014°17'8 7.8
2015-Apr-13 18:33N 55°10' E 014°03'38 7.7
2015-Apr-13 13:33N 55°14' E 012°56'8 7.9
2015-Apr-13 12:33N 55°16' E 012°43'8 8.1
2015-Apr-13 11:33N 55°19' E 012°30'1 1.4
2015-Apr-13 10:33N 55°19' E 012°27'0 0.0
2015-Apr-13 09:33N 55°19' E 012°27'0 0.0
2015-Apr-13 08:33N 55°19' E 012°27'0 0.0
2015-Apr-13 07:24N 55°19' E 012°27'0 0.0
2015-Apr-13 06:33N 55°19' E 012°27'0 0.0
2015-Apr-13 05:33N 55°19' E 012°27'1 1.0
2015-Apr-13 04:26N 55°19' E 012°29'0 0.0
2015-Apr-13 03:32N 55°19' E 012°29'0 0.0
2015-Apr-13 02:29N 55°19' E 012°29'0 0.1
2015-Apr-13 01:32N 55°19' E 012°29'0 0.2
2015-Apr-13 00:26N 55°19' E 012°29'0 0.0
2015-Apr-12 23:29N 55°19' E 012°29'0 0.1
2015-Apr-12 22:32N 55°19' E 012°29'0 0.0
2015-Apr-12 21:23N 55°19' E 012°29'0 0.0
2015-Apr-12 20:32N 55°19' E 012°29'0 0.2
2015-Apr-12 19:33N 55°19' E 012°29'7 7.1
2015-Apr-12 18:32N 55°11' E 012°32'27 6.9
2015-Apr-12 14:33N 54°45' E 012°41'7 7.2
2015-Apr-12 13:32N 54°40' E 012°31'7 7.5
2015-Apr-12 12:33N 54°36' E 012°20'7 6.8
2015-Apr-12 11:33N 54°30' E 012°16'7 6.8
2015-Apr-12 10:33N 54°25' E 012°08'7 7.5
2015-Apr-12 09:33N 54°25' E 011°56'7 7.1
2015-Apr-12 08:33N 54°26' E 011°43'7 7.4
2015-Apr-12 07:33N 54°29' E 011°32'8 7.6
2015-Apr-12 06:33N 54°32' E 011°20'7 7.5
2015-Apr-12 05:33N 54°36' E 011°09'33 0.7
2015-Apr-10 05:10N 54°50' E 010°18'5 8.2
2015-Apr-10 04:33N 54°47' E 010°25'26 8.4
2015-Apr-10 01:28N 54°36' E 011°06'8 8.4
2015-Apr-10 00:33N 54°34' E 011°18'8 8.5
2015-Apr-09 23:33N 54°31' E 011°32'9 8.9
2015-Apr-09 22:33N 54°30' E 011°47'9 8.6
2015-Apr-09 21:33N 54°30' E 012°02'8 8.0
2015-Apr-09 20:33N 54°37' E 012°10'  
Track history (hours):
 
Tides and Currents Weather Stations Pressure Air Temp Water Temp Dewpoint Dewpoint Depression Visibility Wind Speed Wind Dir Waves Ship Positions

Frem Nordica

Last reported at 2015-Apr-19 20:15 UTC. Time now 2015-Apr-21 09:46 UTC.
Position N 55°12' E 012°11'.

Length 79 m; draft 3.4 m.

MMSI: 220439000.

Date/timePositionNaut miles runAvg speedWind from/ knotsBaromVisibWave heightAir tempDewpointWater temp
2015-Apr-19 20:15N 55°12' E 012°11'5 7.3
2015-Apr-19 19:33N 55°12' E 012°19'8 8.3
2015-Apr-19 18:33N 55°13' E 012°34'8 8.3
2015-Apr-19 17:33N 55°13' E 012°48'8 8.3
2015-Apr-19 16:33N 55°13' E 013°03'189 6.9
2015-Apr-18 13:23N 57°11' E 017°28'  
2015-Apr-13 20:31N 55°14' E 014°27'7 7.6
2015-Apr-13 19:33N 55°09' E 014°17'8 7.8
2015-Apr-13 18:33N 55°10' E 014°03'38 7.7
2015-Apr-13 13:33N 55°14' E 012°56'8 7.9
2015-Apr-13 12:33N 55°16' E 012°43'8 8.1
2015-Apr-13 11:33N 55°19' E 012°30'1 1.4
2015-Apr-13 10:33N 55°19' E 012°27'0 0.0
2015-Apr-13 09:33N 55°19' E 012°27'0 0.0
2015-Apr-13 08:33N 55°19' E 012°27'0 0.0
2015-Apr-13 07:24N 55°19' E 012°27'0 0.0
2015-Apr-13 06:33N 55°19' E 012°27'0 0.0
2015-Apr-13 05:33N 55°19' E 012°27'1 1.0
2015-Apr-13 04:26N 55°19' E 012°29'0 0.0
2015-Apr-13 03:32N 55°19' E 012°29'0 0.0
2015-Apr-13 02:29N 55°19' E 012°29'0 0.1
2015-Apr-13 01:32N 55°19' E 012°29'0 0.2
2015-Apr-13 00:26N 55°19' E 012°29'0 0.0
2015-Apr-12 23:29N 55°19' E 012°29'0 0.1
2015-Apr-12 22:32N 55°19' E 012°29'0 0.0
2015-Apr-12 21:23N 55°19' E 012°29'0 0.0
2015-Apr-12 20:32N 55°19' E 012°29'0 0.2
2015-Apr-12 19:33N 55°19' E 012°29'7 7.1
2015-Apr-12 18:32N 55°11' E 012°32'27 6.9
2015-Apr-12 14:33N 54°45' E 012°41'7 7.2
2015-Apr-12 13:32N 54°40' E 012°31'7 7.5
2015-Apr-12 12:33N 54°36' E 012°20'7 6.8
2015-Apr-12 11:33N 54°30' E 012°16'7 6.8
2015-Apr-12 10:33N 54°25' E 012°08'7 7.5
2015-Apr-12 09:33N 54°25' E 011°56'7 7.1
2015-Apr-12 08:33N 54°26' E 011°43'7 7.4
2015-Apr-12 07:33N 54°29' E 011°32'8 7.6
2015-Apr-12 06:33N 54°32' E 011°20'7 7.5
2015-Apr-12 05:33N 54°36' E 011°09'33 0.7
2015-Apr-10 05:10N 54°50' E 010°18'5 8.2
2015-Apr-10 04:33N 54°47' E 010°25'26 8.4
2015-Apr-10 01:28N 54°36' E 011°06'8 8.4
2015-Apr-10 00:33N 54°34' E 011°18'8 8.5
2015-Apr-09 23:33N 54°31' E 011°32'9 8.9
2015-Apr-09 22:33N 54°30' E 011°47'9 8.6
2015-Apr-09 21:33N 54°30' E 012°02'8 8.0
2015-Apr-09 20:33N 54°37' E 012°10'  

Dump ship's entire track history